createdAt,value
2022-09-20T00:04:04.436Z,101574.25
2022-09-20T00:09:06.019Z,101563.44
2022-09-20T00:14:08.297Z,101578.41
2022-09-20T00:19:20.284Z,101569.47
2022-09-20T00:24:21.812Z,101568.06
2022-09-20T00:29:23.343Z,101579.63
2022-09-20T00:34:24.981Z,101570.81
2022-09-20T00:39:26.597Z,101580.75
2022-09-20T00:44:57.306Z,101585.13
2022-09-20T00:50:05.749Z,101584.38
2022-09-20T00:55:08.468Z,101582.41
2022-09-20T01:00:11.698Z,101570.81
2022-09-20T01:05:15.686Z,101571.13
2022-09-20T01:10:17.643Z,101576.38
2022-09-20T01:15:20.621Z,101584.28
2022-09-20T01:20:31.593Z,101584.63
2022-09-20T01:26:01.909Z,101573.63
2022-09-20T01:31:23.183Z,101578.03
2022-09-20T01:36:31.336Z,101580.53
2022-09-20T01:41:45.629Z,101590.16
2022-09-20T01:46:53.553Z,101591.00
2022-09-20T01:52:10.097Z,101589.81
2022-09-20T01:57:42.251Z,101592.44
2022-09-20T02:02:52.816Z,101593.25
2022-09-20T02:08:11.113Z,101596.59
2022-09-20T02:13:32.176Z,101583.56
2022-09-20T02:18:36.476Z,101592.25
2022-09-20T02:24:05.945Z,101580.66
2022-09-20T02:29:13.267Z,101575.25
2022-09-20T02:34:48.649Z,101583.69
2022-09-20T02:39:59.174Z,101584.50
2022-09-20T02:45:15.481Z,101577.09
2022-09-20T02:50:45.365Z,101576.44
2022-09-20T02:56:17.369Z,101573.00
2022-09-20T03:01:24.730Z,101568.88
2022-09-20T03:06:47.213Z,101571.94
2022-09-20T03:12:14.394Z,101562.28
2022-09-20T03:17:15.801Z,101564.63
2022-09-20T03:22:55.922Z,101569.28
2022-09-20T03:28:25.217Z,101572.75
2022-09-20T03:33:32.378Z,101582.09
2022-09-20T03:38:43.015Z,101579.47
2022-09-20T03:43:56.555Z,101582.03
2022-09-20T03:49:19.887Z,101575.25
2022-09-20T03:54:48.959Z,101579.63
2022-09-20T04:00:07.148Z,101575.72
2022-09-20T04:05:18.288Z,101570.66
2022-09-20T04:10:28.632Z,101566.25
2022-09-20T04:15:31.157Z,101570.72
2022-09-20T04:20:56.304Z,101576.63
2022-09-20T04:26:01.320Z,101586.84
2022-09-20T04:31:16.334Z,101583.69
2022-09-20T04:36:36.981Z,101581.50
2022-09-20T04:41:47.724Z,101582.50
2022-09-20T04:47:20.471Z,101593.03
2022-09-20T04:52:33.869Z,101600.09
2022-09-20T04:58:29.931Z,101605.38
2022-09-20T05:03:59.231Z,101605.38
2022-09-20T05:09:12.995Z,101605.84
2022-09-20T05:14:36.444Z,101609.75
2022-09-20T05:19:47.063Z,101616.00
2022-09-20T05:24:54.611Z,101618.63
2022-09-20T05:30:33.090Z,101621.13
2022-09-20T05:35:43.786Z,101619.28
2022-09-20T05:41:08.267Z,101623.66
2022-09-20T05:46:27.773Z,101628.59
2022-09-20T05:51:41.297Z,101637.94
2022-09-20T05:57:13.506Z,101637.72
2022-09-20T06:02:27.968Z,101638.84
2022-09-20T06:07:35.383Z,101642.69
2022-09-20T06:13:03.993Z,101646.88
2022-09-20T06:18:11.564Z,101648.97
2022-09-20T06:23:13.350Z,101649.09
2022-09-20T06:28:24.051Z,101647.88
2022-09-20T06:33:28.332Z,101647.53
2022-09-20T06:38:46.193Z,101648.28
2022-09-20T06:43:47.739Z,101657.84
2022-09-20T06:48:49.235Z,101666.84
2022-09-20T06:53:51.487Z,101665.50
2022-09-20T06:58:53.267Z,101671.72
2022-09-20T07:03:54.861Z,101670.94
2022-09-20T07:08:56.394Z,101678.72
2022-09-20T07:13:57.967Z,101673.94
2022-09-20T07:18:59.601Z,101679.25
2022-09-20T07:24:01.385Z,101684.59
2022-09-20T07:29:02.901Z,101693.41
2022-09-20T07:34:04.485Z,101687.78
2022-09-20T07:39:06.051Z,101687.34
2022-09-20T07:44:07.624Z,101696.16
2022-09-20T07:49:09.148Z,101697.91
2022-09-20T07:54:10.675Z,101704.25
2022-09-20T07:59:13.111Z,101703.28
2022-09-20T08:04:14.625Z,101700.25
2022-09-20T08:09:16.272Z,101707.56
2022-09-20T08:14:18.338Z,101708.34
2022-09-20T08:19:22.075Z,101717.19
2022-09-20T08:24:23.781Z,101707.72
2022-09-20T08:29:25.700Z,101706.63
2022-09-20T08:34:27.475Z,101713.34
2022-09-20T08:45:34.936Z,101708.94
2022-09-20T08:50:37.254Z,101714.91
2022-09-20T08:55:40.384Z,101719.50
2022-09-20T09:00:45.608Z,101715.34
2022-09-20T09:05:49.835Z,101713.84
2022-09-20T09:11:01.862Z,101713.06
2022-09-20T09:16:13.997Z,101716.75
2022-09-20T09:21:28.471Z,101713.16
2022-09-20T09:26:37.582Z,101707.56
2022-09-20T09:31:39.144Z,101707.19
2022-09-20T09:36:44.246Z,101713.25
2022-09-20T09:41:45.795Z,101713.88
2022-09-20T09:46:47.486Z,101713.66
2022-09-20T09:52:13.750Z,101710.00
2022-09-20T09:57:34.824Z,101708.00
2022-09-20T10:03:04.419Z,101714.47
2022-09-20T10:08:24.698Z,101706.53
2022-09-20T10:13:55.168Z,101711.22
2022-09-20T10:19:15.096Z,101708.59
2022-09-20T10:24:27.039Z,101710.34
2022-09-20T10:29:56.688Z,101706.53
2022-09-20T10:35:25.717Z,101711.34
2022-09-20T10:40:38.842Z,101709.06
2022-09-20T10:46:27.581Z,101699.53
2022-09-20T10:51:33.615Z,101700.25
2022-09-20T10:56:43.140Z,101713.47
2022-09-20T11:01:47.723Z,101714.25
2022-09-20T11:07:26.238Z,101721.25
2022-09-20T11:12:27.912Z,101718.03
2022-09-20T11:17:36.075Z,101709.41
2022-09-20T11:22:43.655Z,101709.81
2022-09-20T11:28:01.424Z,101716.81
2022-09-20T11:33:15.002Z,101715.56
2022-09-20T11:38:27.645Z,101719.19
2022-09-20T11:43:30.263Z,101715.34
2022-09-20T11:49:10.925Z,101717.53
2022-09-20T11:54:37.372Z,101725.44
2022-09-20T11:59:48.818Z,101721.97
2022-09-20T12:10:05.852Z,101744.69
2022-09-20T12:15:31.887Z,101741.09
2022-09-20T12:20:33.365Z,101739.31
2022-09-20T12:25:39.119Z,101735.06
2022-09-20T12:30:40.670Z,101731.72
2022-09-20T12:35:58.975Z,101736.78
2022-09-20T12:41:13.748Z,101735.97
2022-09-20T12:46:26.679Z,101741.50
2022-09-20T12:51:33.048Z,101741.44
2022-09-20T12:56:41.362Z,101727.97
2022-09-20T13:01:42.878Z,101734.25
2022-09-20T13:06:44.454Z,101728.44
2022-09-20T13:11:56.667Z,101727.19
2022-09-20T13:17:19.207Z,101720.97
2022-09-20T13:22:26.485Z,101725.69
2022-09-20T13:27:49.991Z,101732.53
2022-09-20T13:32:53.154Z,101720.00
2022-09-20T13:38:01.762Z,101717.97
2022-09-20T13:43:23.987Z,101727.06
2022-09-20T13:48:30.200Z,101724.66
2022-09-20T13:53:47.102Z,101712.03
2022-09-20T13:58:50.172Z,101726.50
2022-09-20T14:03:53.078Z,101715.47
2022-09-20T14:08:56.197Z,101715.06
2022-09-20T14:14:04.924Z,101713.78
2022-09-20T14:19:08.214Z,101710.47
2022-09-20T14:24:16.173Z,101709.97
2022-09-20T14:29:39.001Z,101723.06
2022-09-20T14:34:41.454Z,101711.25
2022-09-20T14:39:53.950Z,101700.22
2022-09-20T14:44:55.719Z,101707.56
2022-09-20T14:49:58.407Z,101706.31
2022-09-20T14:55:19.176Z,101694.88
2022-09-20T15:00:20.830Z,101698.22
2022-09-20T15:05:27.250Z,101707.13
2022-09-20T15:10:28.803Z,101697.06
2022-09-20T15:15:30.315Z,101695.66
2022-09-20T15:20:32.067Z,101703.53
2022-09-20T15:25:33.700Z,101706.38
2022-09-20T15:30:35.992Z,101703.53
2022-09-20T15:35:41.859Z,101697.25
2022-09-20T15:40:44.470Z,101700.19
2022-09-20T15:45:51.800Z,101691.34
2022-09-20T15:51:08.077Z,101689.69
2022-09-20T15:56:22.865Z,101689.53
2022-09-20T16:01:29.467Z,101682.59
2022-09-20T16:06:31.891Z,101687.19
2022-09-20T16:11:34.168Z,101689.00
2022-09-20T16:16:40.079Z,101693.09
2022-09-20T16:21:44.360Z,101693.72
2022-09-20T16:26:45.861Z,101696.41
2022-09-20T16:31:49.372Z,101696.53
2022-09-20T16:36:52.992Z,101699.19
2022-09-20T16:42:02.985Z,101708.78
2022-09-20T16:47:06.500Z,101704.50
2022-09-20T16:52:09.117Z,101704.06
2022-09-20T16:57:10.658Z,101705.88
2022-09-20T17:02:12.279Z,101706.66
2022-09-20T17:07:13.799Z,101702.75
2022-09-20T17:12:15.335Z,101714.97
2022-09-20T17:17:16.813Z,101718.44
2022-09-20T17:22:18.331Z,101719.59
2022-09-20T17:27:19.795Z,101726.50
2022-09-20T17:32:21.292Z,101724.19
2022-09-20T17:37:22.854Z,101739.59
2022-09-20T17:42:24.375Z,101743.59
2022-09-20T17:47:25.908Z,101751.09
2022-09-20T17:52:27.392Z,101756.06
2022-09-20T17:57:28.907Z,101757.59
2022-09-20T18:02:30.695Z,101762.56
2022-09-20T18:07:32.219Z,101763.66
2022-09-20T18:12:33.717Z,101774.88
2022-09-20T18:17:35.207Z,101781.88
2022-09-20T18:22:36.764Z,101788.81
2022-09-20T18:27:38.253Z,101792.13
2022-09-20T18:32:39.780Z,101799.44
2022-09-20T18:37:41.272Z,101797.88
2022-09-20T18:42:42.751Z,101807.69
2022-09-20T18:47:44.232Z,101809.94
2022-09-20T18:52:45.793Z,101806.53
2022-09-20T18:57:47.504Z,101810.59
2022-09-20T19:03:10.119Z,101816.78
2022-09-20T19:08:31.597Z,101823.72
2022-09-20T19:13:51.347Z,101823.91
2022-09-20T19:19:11.612Z,101832.84
2022-09-20T19:24:28.373Z,101832.38
2022-09-20T19:29:30.241Z,101836.19
2022-09-20T19:34:33.109Z,101836.03
2022-09-20T19:39:49.435Z,101847.06
2022-09-20T19:45:02.685Z,101855.69
2022-09-20T19:50:15.575Z,101852.19
2022-09-20T19:55:17.553Z,101860.22
2022-09-20T20:00:21.048Z,101857.56
2022-09-20T20:05:23.525Z,101862.84
2022-09-20T20:10:37.800Z,101873.44
2022-09-20T20:15:46.577Z,101882.38
2022-09-20T20:20:50.061Z,101877.28
2022-09-20T20:26:05.560Z,101875.69
2022-09-20T20:31:07.115Z,101883.94
2022-09-20T20:36:09.533Z,101886.22
2022-09-20T20:41:13.863Z,101887.03
2022-09-20T20:46:17.691Z,101896.53
2022-09-20T20:51:21.638Z,101900.53
2022-09-20T20:56:28.640Z,101905.28
2022-09-20T21:01:32.506Z,101909.41
2022-09-20T21:06:35.851Z,101911.88
2022-09-20T21:11:40.075Z,101910.06
2022-09-20T21:16:43.363Z,101913.97
2022-09-20T21:21:46.691Z,101916.94
2022-09-20T21:26:48.201Z,101918.09
2022-09-20T21:31:49.693Z,101934.00
2022-09-20T21:36:51.169Z,101935.97
2022-09-20T21:41:52.668Z,101929.38
2022-09-20T21:46:54.174Z,101933.81
2022-09-20T21:51:55.676Z,101933.81
2022-09-20T21:56:57.200Z,101935.66
2022-09-20T22:01:58.876Z,101935.53
2022-09-20T22:07:00.536Z,101944.31
2022-09-20T22:12:02.235Z,101943.41
2022-09-20T22:17:03.760Z,101943.53
2022-09-20T22:22:05.289Z,101930.84
2022-09-20T22:27:06.815Z,101934.06
2022-09-20T22:32:20.345Z,101941.34
2022-09-20T22:37:21.866Z,101938.72
2022-09-20T22:42:23.433Z,101928.72
2022-09-20T22:47:25.306Z,101934.78
2022-09-20T22:52:26.793Z,101932.22
2022-09-20T23:04:05.489Z,101944.44
2022-09-20T23:09:10.552Z,101943.41
2022-09-20T23:14:14.994Z,101939.22
2022-09-20T23:19:17.009Z,101945.06
2022-09-20T23:24:31.522Z,101944.09
2022-09-20T23:29:33.024Z,101944.38
2022-09-20T23:34:34.563Z,101947.03
2022-09-20T23:39:53.640Z,101954.91
2022-09-20T23:44:55.364Z,101957.66
2022-09-20T23:49:56.870Z,101949.72
2022-09-20T23:55:39.595Z,101947.75
